Black Star — 9HA2911 — position and weather

sailwx.info

Track history (hours):
 
Tides and Currents Weather Stations Pressure Air Temp Water Temp Dewpoint Dewpoint Depression Visibility Wind Speed Wind Dir Waves Ship Positions

Black Star

Last reported at 2016-Jul-30 01:33 UTC. Time now 2016-Jul-30 01:58 UTC.
Position N 32°53' E 032°31'.

Length 128 m; draft 5.5 m.

Type: Tanker. MMSI: 256714000.

Date/timePositionNaut miles runAvg speedWind from/ knotsBaromVisibWave heightAir tempDewpointWater temp
2016-Jul-30 01:33N 32°53' E 032°31'1313.0
2016-Jul-30 00:33N 33°00' E 032°19'1312.8
2016-Jul-29 23:33N 33°07' E 032°06'1312.7
2016-Jul-29 22:33N 33°14' E 031°53'1413.5
2016-Jul-29 21:33N 33°23' E 031°41'1312.7
2016-Jul-29 20:33N 33°31' E 031°29'2713.0
2016-Jul-29 18:27N 33°47' E 031°02'1213.3
2016-Jul-29 17:31N 33°54' E 030°50'32113.3
2016-Jul-28 17:23N 37°27' E 025°56'  
2016-Jul-24 04:10N 40°02' E 026°17'5 8.2
2016-Jul-24 03:32N 40°01' E 026°11'13 4.3
2016-Jul-24 00:33N 39°55' E 025°56'4 4.2
2016-Jul-23 23:30N 39°52' E 025°53'11012.3
2016-Jul-23 14:31N 38°13' E 024°48'3511.6
2016-Jul-23 11:29N 37°45' E 024°21'2211.3
2016-Jul-23 09:33N 37°36' E 023°56'1212.0
2016-Jul-23 08:33N 37°41' E 023°42'1312.6
2016-Jul-23 07:33N 37°52' E 023°36'5 4.8
2016-Jul-23 06:29N 37°57' E 023°35'0 0.0
2016-Jul-23 04:32N 37°57' E 023°35'0 0.0
2016-Jul-23 03:29N 37°57' E 023°35'0 0.0
2016-Jul-23 02:32N 37°57' E 023°35'0 0.0
2016-Jul-23 01:32N 37°57' E 023°35'0 0.0
2016-Jul-23 00:32N 37°57' E 023°35'0 0.0
2016-Jul-22 23:29N 37°57' E 023°35'0 0.0
2016-Jul-22 22:26N 37°57' E 023°35'0 0.0
2016-Jul-22 21:32N 37°57' E 023°35'0 0.0
2016-Jul-22 20:29N 37°57' E 023°35'0 0.0
2016-Jul-22 19:32N 37°57' E 023°35'0 0.0
2016-Jul-22 18:22N 37°57' E 023°35'0 0.0
2016-Jul-22 17:29N 37°57' E 023°35'0 0.0
2016-Jul-22 16:29N 37°57' E 023°35'0 0.1
2016-Jul-22 15:34N 37°57' E 023°35'4 3.9
2016-Jul-22 14:33N 37°54' E 023°37'5 4.9
2016-Jul-22 13:34N 37°50' E 023°40'4 4.1
2016-Jul-22 12:34N 37°46' E 023°42'4 3.8
2016-Jul-22 11:34N 37°43' E 023°44'3 3.4
2016-Jul-22 10:34N 37°39' E 023°45'6 5.7
2016-Jul-22 09:33N 37°34' E 023°45'7 7.1
2016-Jul-22 08:34N 37°27' E 023°45'7 7.0
2016-Jul-22 07:34N 37°20' E 023°44'14 6.9
2016-Jul-22 05:33N 37°06' E 023°40'9 8.8
2016-Jul-22 04:34N 36°58' E 023°37'1010.1
2016-Jul-22 03:33N 36°48' E 023°33'1010.3
2016-Jul-22 02:33N 36°39' E 023°26'1010.1
2016-Jul-22 01:32N 36°31' E 023°19'41711.3
2016-Jul-20 12:34N 36°37' E 014°40'1010.2
2016-Jul-20 11:34N 36°42' E 014°28'1010.2
2016-Jul-20 10:34N 36°47' E 014°17'1010.5
2016-Jul-20 09:34N 36°52' E 014°06'1110.8
2016-Jul-20 08:34N 36°58' E 013°54'1212.1
2016-Jul-20 07:34N 37°04' E 013°41'5811.6
2016-Jul-20 02:31N 37°19' E 012°30'  
Track history (hours):
 
Tides and Currents Weather Stations Pressure Air Temp Water Temp Dewpoint Dewpoint Depression Visibility Wind Speed Wind Dir Waves Ship Positions

Black Star

Last reported at 2016-Jul-30 01:33 UTC. Time now 2016-Jul-30 01:58 UTC.
Position N 32°53' E 032°31'.

Length 128 m; draft 5.5 m.

Type: Tanker. MMSI: 256714000.

Date/timePositionNaut miles runAvg speedWind from/ knotsBaromVisibWave heightAir tempDewpointWater temp
2016-Jul-30 01:33N 32°53' E 032°31'1313.0
2016-Jul-30 00:33N 33°00' E 032°19'1312.8
2016-Jul-29 23:33N 33°07' E 032°06'1312.7
2016-Jul-29 22:33N 33°14' E 031°53'1413.5
2016-Jul-29 21:33N 33°23' E 031°41'1312.7
2016-Jul-29 20:33N 33°31' E 031°29'2713.0
2016-Jul-29 18:27N 33°47' E 031°02'1213.3
2016-Jul-29 17:31N 33°54' E 030°50'32113.3
2016-Jul-28 17:23N 37°27' E 025°56'  
2016-Jul-24 04:10N 40°02' E 026°17'5 8.2
2016-Jul-24 03:32N 40°01' E 026°11'13 4.3
2016-Jul-24 00:33N 39°55' E 025°56'4 4.2
2016-Jul-23 23:30N 39°52' E 025°53'11012.3
2016-Jul-23 14:31N 38°13' E 024°48'3511.6
2016-Jul-23 11:29N 37°45' E 024°21'2211.3
2016-Jul-23 09:33N 37°36' E 023°56'1212.0
2016-Jul-23 08:33N 37°41' E 023°42'1312.6
2016-Jul-23 07:33N 37°52' E 023°36'5 4.8
2016-Jul-23 06:29N 37°57' E 023°35'0 0.0
2016-Jul-23 04:32N 37°57' E 023°35'0 0.0
2016-Jul-23 03:29N 37°57' E 023°35'0 0.0
2016-Jul-23 02:32N 37°57' E 023°35'0 0.0
2016-Jul-23 01:32N 37°57' E 023°35'0 0.0
2016-Jul-23 00:32N 37°57' E 023°35'0 0.0
2016-Jul-22 23:29N 37°57' E 023°35'0 0.0
2016-Jul-22 22:26N 37°57' E 023°35'0 0.0
2016-Jul-22 21:32N 37°57' E 023°35'0 0.0
2016-Jul-22 20:29N 37°57' E 023°35'0 0.0
2016-Jul-22 19:32N 37°57' E 023°35'0 0.0
2016-Jul-22 18:22N 37°57' E 023°35'0 0.0
2016-Jul-22 17:29N 37°57' E 023°35'0 0.0
2016-Jul-22 16:29N 37°57' E 023°35'0 0.1
2016-Jul-22 15:34N 37°57' E 023°35'4 3.9
2016-Jul-22 14:33N 37°54' E 023°37'5 4.9
2016-Jul-22 13:34N 37°50' E 023°40'4 4.1
2016-Jul-22 12:34N 37°46' E 023°42'4 3.8
2016-Jul-22 11:34N 37°43' E 023°44'3 3.4
2016-Jul-22 10:34N 37°39' E 023°45'6 5.7
2016-Jul-22 09:33N 37°34' E 023°45'7 7.1
2016-Jul-22 08:34N 37°27' E 023°45'7 7.0
2016-Jul-22 07:34N 37°20' E 023°44'14 6.9
2016-Jul-22 05:33N 37°06' E 023°40'9 8.8
2016-Jul-22 04:34N 36°58' E 023°37'1010.1
2016-Jul-22 03:33N 36°48' E 023°33'1010.3
2016-Jul-22 02:33N 36°39' E 023°26'1010.1
2016-Jul-22 01:32N 36°31' E 023°19'41711.3
2016-Jul-20 12:34N 36°37' E 014°40'1010.2
2016-Jul-20 11:34N 36°42' E 014°28'1010.2
2016-Jul-20 10:34N 36°47' E 014°17'1010.5
2016-Jul-20 09:34N 36°52' E 014°06'1110.8
2016-Jul-20 08:34N 36°58' E 013°54'1212.1
2016-Jul-20 07:34N 37°04' E 013°41'5811.6
2016-Jul-20 02:31N 37°19' E 012°30'  

Dump ship's entire track history